createdAt,value
2019-06-08T00:12:21.213Z,62.54
2019-06-08T00:27:28.198Z,62.80
2019-06-08T00:42:35.588Z,63.31
2019-06-08T00:57:42.961Z,63.04
2019-06-08T01:12:50.279Z,63.46
2019-06-08T01:27:57.654Z,64.12
2019-06-08T01:43:05.559Z,64.83
2019-06-08T01:58:13.086Z,64.78
2019-06-08T02:13:20.678Z,64.78
2019-06-08T02:28:29.459Z,65.30
2019-06-08T02:43:38.322Z,65.64
2019-06-08T02:58:45.527Z,66.10
2019-06-08T03:13:57.108Z,66.61
2019-06-08T03:29:05.408Z,66.09
2019-06-08T03:44:13.222Z,66.33
2019-06-08T03:59:21.336Z,66.21
2019-06-08T04:14:30.700Z,66.03
2019-06-08T04:29:39.545Z,63.19
2019-06-08T04:44:49.427Z,60.51
2019-06-08T04:59:56.934Z,57.12
2019-06-08T05:15:07.888Z,56.41
2019-06-08T05:30:17.492Z,56.41
2019-06-08T05:45:25.409Z,56.24
2019-06-08T06:00:33.192Z,56.24
2019-06-08T06:15:41.204Z,57.13
2019-06-08T06:30:50.250Z,53.35
2019-06-08T06:50:14.385Z,54.29
2019-06-08T07:05:22.209Z,54.38
2019-06-08T07:20:30.069Z,53.79
2019-06-08T07:35:37.982Z,52.61
2019-06-08T07:50:44.683Z,51.33
2019-06-08T08:05:53.534Z,50.87
2019-06-08T08:21:09.238Z,50.26
2019-06-08T08:36:11.564Z,49.63
2019-06-08T08:51:21.554Z,48.50
2019-06-08T09:06:30.099Z,46.37
2019-06-08T09:21:38.460Z,44.72
2019-06-08T09:36:47.812Z,44.01
2019-06-08T09:51:58.730Z,43.00
2019-06-08T10:07:05.703Z,42.84
2019-06-08T10:22:13.539Z,42.71
2019-06-08T10:37:21.257Z,42.98
2019-06-08T10:52:29.227Z,43.54
2019-06-08T11:07:38.066Z,46.31
2019-06-08T11:22:49.758Z,47.26
2019-06-08T11:37:55.316Z,47.52
2019-06-08T11:53:05.284Z,49.29
2019-06-08T12:08:13.783Z,51.10
2019-06-08T12:23:23.854Z,51.82
2019-06-08T12:38:34.477Z,51.23
2019-06-08T12:53:41.012Z,49.29
2019-06-08T13:08:47.848Z,46.43
2019-06-08T13:23:57.991Z,44.66
2019-06-08T13:39:10.368Z,44.66
2019-06-08T13:54:19.960Z,45.52
2019-06-08T14:09:31.527Z,45.77
2019-06-08T14:24:37.828Z,46.72
2019-06-08T14:39:45.795Z,52.65
2019-06-08T14:54:53.512Z,58.12
2019-06-08T15:10:01.067Z,59.36
2019-06-08T15:25:11.211Z,59.29
2019-06-08T15:40:18.477Z,59.75
2019-06-08T15:55:31.221Z,60.21
2019-06-08T16:10:37.112Z,59.86
2019-06-08T16:25:45.726Z,59.56
2019-06-08T16:40:53.826Z,59.49
2019-06-08T16:56:03.326Z,60.28
2019-06-08T17:11:11.310Z,60.70
2019-06-08T17:26:18.906Z,57.84
2019-06-08T17:41:26.785Z,57.84
2019-06-08T17:56:35.374Z,58.03
2019-06-08T18:11:45.133Z,56.47
2019-06-08T18:26:58.222Z,56.76
2019-06-08T18:42:08.074Z,57.29
2019-06-08T18:57:17.524Z,58.04
2019-06-08T19:12:25.046Z,58.70
2019-06-08T19:27:32.965Z,59.19
2019-06-08T19:42:51.024Z,58.94
2019-06-08T19:57:51.762Z,55.76
2019-06-08T20:12:59.584Z,53.48
2019-06-08T20:28:08.017Z,51.43
2019-06-08T20:43:17.730Z,51.08
2019-06-08T20:58:24.113Z,51.43
2019-06-08T21:13:31.925Z,52.17
2019-06-08T21:28:39.825Z,52.96
2019-06-08T21:43:51.591Z,53.88
2019-06-08T21:59:00.911Z,54.63
2019-06-08T22:14:08.005Z,55.19
2019-06-08T22:29:18.120Z,55.90
2019-06-08T22:44:28.425Z,56.45
2019-06-08T22:59:37.240Z,57.15
2019-06-08T23:14:47.126Z,57.90
2019-06-08T23:29:56.600Z,58.42
2019-06-08T23:45:10.342Z,58.66
